Time;durP1;ratioP1;P1;durP2;ratioP2;P2;SDS_P1;SDS_P2;PMS_P1;PMS_P2;Temp;Humidity;BMP_temperature;BMP_pressure;BME280_temperature;BME280_humidity;BME280_pressure;Samples;Min_cycle;Max_cycle;Signal;HPM_P1;HPM_P2
2022/01/27 00:01:29;;;;;;;37.75;18.00;;;;;;;0.33;100.00;100848.56;5072290;28;20184;-79
2022/01/27 00:04:06;;;;;;;38.50;18.60;;;;;;;0.41;100.00;100832.69;5065765;28;20220;-80
2022/01/27 00:06:36;;;;;;;35.60;17.58;;;;;;;0.51;100.00;100825.66;5071820;28;20188;-80
2022/01/27 00:09:12;;;;;;;40.72;18.05;;;;;;;0.50;100.00;100827.41;5072332;28;20532;-80
2022/01/27 00:11:42;;;;;;;36.90;18.10;;;;;;;0.46;100.00;100822.13;5071411;28;20254;-80
2022/01/27 00:14:11;;;;;;;35.70;18.45;;;;;;;0.33;100.00;100829.13;5072003;28;20609;-80
2022/01/27 00:16:41;;;;;;;34.78;18.20;;;;;;;0.41;100.00;100822.97;5071110;28;20646;-80
2022/01/27 00:19:10;;;;;;;41.65;20.10;;;;;;;0.57;100.00;100825.66;5072137;28;20184;-80
2022/01/27 00:21:38;;;;;;;39.78;17.40;;;;;;;0.53;100.00;100823.88;5071774;28;20279;-80
2022/01/27 00:24:05;;;;;;;36.78;18.30;;;;;;;0.70;100.00;100819.50;5071651;28;20305;-80
2022/01/27 00:26:34;;;;;;;39.65;18.88;;;;;;;0.62;100.00;100808.88;5071583;28;20204;-80
2022/01/27 00:29:01;;;;;;;38.28;17.60;;;;;;;0.57;100.00;100813.28;5072063;28;20280;-80
2022/01/27 00:31:27;;;;;;;33.92;17.50;;;;;;;0.63;100.00;100812.41;5071324;28;20645;-80
2022/01/27 00:33:55;;;;;;;30.92;17.88;;;;;;;0.72;100.00;100814.19;5071858;28;20185;-80
2022/01/27 00:36:22;;;;;;;38.67;18.42;;;;;;;0.78;100.00;100809.78;5071107;28;20200;-80
2022/01/27 00:38:51;;;;;;;35.45;17.63;;;;;;;0.78;100.00;100811.56;5071586;28;20284;-80
2022/01/27 00:41:19;;;;;;;32.67;16.60;;;;;;;0.57;100.00;100797.38;5071163;28;20642;-79
2022/01/27 00:43:48;;;;;;;33.83;19.02;;;;;;;0.54;100.00;100788.53;5071866;28;20196;-80
2022/01/27 00:46:16;;;;;;;35.85;18.65;;;;;;;0.50;100.00;100790.31;5071692;28;20192;-79
2022/01/27 00:48:43;;;;;;;36.15;19.00;;;;;;;0.52;100.00;100785.00;5071495;28;20191;-80
2022/01/27 00:51:11;;;;;;;35.22;18.13;;;;;;;0.68;100.00;100788.56;5071235;28;20343;-80
2022/01/27 00:53:45;;;;;;;34.60;18.00;;;;;;;0.69;100.00;100779.75;5071611;28;20242;-80
2022/01/27 00:56:22;;;;;;;38.75;18.95;;;;;;;0.88;100.00;100781.50;5071809;28;20544;-80
2022/01/27 00:58:57;;;;;;;40.97;17.95;;;;;;;0.70;100.00;100786.78;5071627;28;20184;-80
2022/01/27 01:01:29;;;;;;;43.60;19.65;;;;;;;0.87;100.00;100785.03;5071336;28;20230;-81
2022/01/27 01:03:59;;;;;;;30.40;16.95;;;;;;;0.95;100.00;100780.63;5071173;28;20219;-80
2022/01/27 01:06:36;;;;;;;41.25;19.83;;;;;;;0.87;100.00;100784.16;5063274;28;20200;-80
2022/01/27 01:14:49;;;;;;;34.28;17.77;;;;;;;0.65;100.00;100805.34;5048031;28;20242;-80
2022/01/27 01:17:39;;;;;;;30.05;14.75;;;;;;;0.51;100.00;100800.03;5071339;28;20193;-80
2022/01/27 01:20:24;;;;;;;34.50;17.02;;;;;;;0.41;100.00;100803.56;5071187;28;20192;-80
2022/01/27 01:31:26;;;;;;;34.50;15.48;;;;;;;0.57;100.00;100828.31;5073791;28;20215;-80
2022/01/27 01:33:59;;;;;;;27.70;15.75;;;;;;;0.44;100.00;100824.75;5074846;28;20238;-80
2022/01/27 01:36:35;;;;;;;33.00;16.63;;;;;;;0.40;100.00;100818.53;5067950;28;20626;-80
2022/01/27 01:39:04;;;;;;;34.88;15.52;;;;;;;0.47;100.00;100822.09;5074854;28;20197;-80
2022/01/27 08:35:01;;;;;;;24.10;12.05;;;;;;;1.49;100.00;100684.13;4244658;29;20315;-80
2022/01/27 08:37:28;;;;;;;25.52;12.30;;;;;;;1.32;100.00;100673.56;4953603;29;20295;-78
2022/01/27 08:39:55;;;;;;;23.30;12.45;;;;;;;1.50;100.00;100675.28;4953706;29;20307;-78
2022/01/27 08:42:21;;;;;;;24.20;13.38;;;;;;;1.43;100.00;100666.47;4953453;29;20219;-79
2022/01/27 08:44:48;;;;;;;27.33;13.75;;;;;;;1.43;100.00;100672.66;4953877;29;20209;-79
2022/01/27 08:47:15;;;;;;;31.17;13.73;;;;;;;1.38;100.00;100666.47;4953961;29;20549;-80
2022/01/27 08:49:44;;;;;;;27.20;13.15;;;;;;;1.31;100.00;100667.41;4954135;29;20650;-79
2022/01/27 08:52:13;;;;;;;28.83;12.38;;;;;;;1.53;100.00;100670.81;4953832;29;20275;-79
2022/01/27 08:54:40;;;;;;;24.33;13.32;;;;;;;1.53;100.00;100675.25;4953231;29;20278;-78
2022/01/27 08:57:07;;;;;;;24.65;14.40;;;;;;;1.73;100.00;100677.84;4953493;29;20264;-79
2022/01/27 08:59:33;;;;;;;25.17;13.98;;;;;;;1.62;100.00;100680.53;4953467;29;20618;-79
2022/01/27 09:02:00;;;;;;;26.25;13.38;;;;;;;1.47;100.00;100678.84;4953106;29;20299;-78
2022/01/27 09:04:27;;;;;;;21.02;13.18;;;;;;;1.64;100.00;100679.63;4953739;29;20268;-79
2022/01/27 09:06:53;;;;;;;28.17;14.77;;;;;;;1.72;100.00;100690.25;4953688;29;20208;-78
2022/01/27 09:09:21;;;;;;;30.33;16.63;;;;;;;1.30;100.00;100681.53;4953482;29;20300;-78
2022/01/27 09:11:48;;;;;;;28.73;15.30;;;;;;;1.36;100.00;100688.63;4953078;29;20209;-79
2022/01/27 09:14:15;;;;;;;26.92;15.52;;;;;;;1.57;100.00;100674.38;4953401;29;20554;-78
2022/01/27 09:16:43;;;;;;;29.08;15.32;;;;;;;1.32;100.00;100679.75;4953379;29;20181;-78
2022/01/27 09:19:09;;;;;;;28.13;14.65;;;;;;;1.47;100.00;100678.84;4953394;29;20196;-79
2022/01/27 09:21:43;;;;;;;31.23;16.35;;;;;;;1.38;100.00;100681.50;4953152;29;20189;-80
2022/01/27 09:24:14;;;;;;;26.60;15.63;;;;;;;1.39;100.00;100685.94;4953395;29;20296;-80
2022/01/27 09:26:51;;;;;;;27.27;15.52;;;;;;;1.48;100.00;100677.06;4953336;29;20279;-79
2022/01/27 09:29:20;;;;;;;27.77;14.70;;;;;;;1.34;100.00;100682.41;4952979;29;20257;-78
2022/01/27 09:31:48;;;;;;;30.58;16.30;;;;;;;1.45;100.00;100680.63;4952956;29;20230;-80
2022/01/27 09:34:14;;;;;;;29.33;14.63;;;;;;;1.40;100.00;100685.94;4952927;28;20212;-80
2022/01/27 09:36:41;;;;;;;30.73;15.90;;;;;;;1.59;100.00;100677.91;4953720;29;20197;-79
2022/01/27 09:39:09;;;;;;;30.73;15.65;;;;;;;1.34;100.00;100670.03;4953234;29;20205;-80
2022/01/27 09:41:38;;;;;;;30.45;15.77;;;;;;;1.68;100.00;100680.50;4953373;29;20242;-79
2022/01/27 09:44:09;;;;;;;29.92;15.13;;;;;;;1.55;100.00;100678.81;4953214;29;20243;-79
2022/01/27 09:46:36;;;;;;;25.30;13.98;;;;;;;1.28;100.00;100679.78;4953349;29;20189;-79
2022/01/27 09:49:10;;;;;;;25.10;13.65;;;;;;;1.54;100.00;100677.00;4953402;28;20189;-80
2022/01/27 09:51:41;;;;;;;31.42;15.13;;;;;;;1.65;100.00;100678.75;4956164;29;20195;-79
2022/01/27 09:54:09;;;;;;;26.30;13.48;;;;;;;1.71;100.00;100683.16;4956462;29;20285;-80
2022/01/27 09:56:35;;;;;;;26.40;13.25;;;;;;;1.70;100.00;100678.75;4956014;29;20228;-80
2022/01/27 09:59:02;;;;;;;30.08;14.13;;;;;;;1.77;100.00;100684.91;4955949;29;20288;-80
2022/01/27 10:01:30;;;;;;;25.92;12.48;;;;;;;1.62;100.00;100683.19;4955919;29;20295;-80
2022/01/27 10:03:59;;;;;;;33.28;14.40;;;;;;;1.80;100.00;100685.75;4955307;29;20204;-80
2022/01/27 10:06:30;;;;;;;29.10;14.63;;;;;;;2.16;100.00;100689.09;4955976;29;20273;-80
2022/01/27 10:09:14;;;;;;;25.38;14.27;;;;;;;2.15;100.00;100686.44;4955797;29;20243;-80
2022/01/27 10:11:42;;;;;;;35.88;16.92;;;;;;;2.15;100.00;100699.72;4956058;29;20558;-79
2022/01/27 10:14:20;;;;;;;24.33;13.23;;;;;;;2.06;100.00;100690.94;4955812;29;20215;-78
2022/01/27 10:16:52;;;;;;;23.55;13.70;;;;;;;1.90;100.00;100686.63;4955682;29;20195;-79
2022/01/27 10:19:18;;;;;;;30.58;14.60;;;;;;;1.97;100.00;100688.34;4956040;29;20196;-79
2022/01/27 10:21:46;;;;;;;26.42;14.35;;;;;;;1.94;100.00;100690.13;4956315;29;20201;-79
2022/01/27 10:24:20;;;;;;;28.48;13.98;;;;;;;2.20;100.00;100685.53;4955864;29;20314;-79
2022/01/27 10:26:53;;;;;;;31.75;13.88;;;;;;;2.33;100.00;100690.75;4955281;29;20192;-80
2022/01/27 10:29:34;;;;;;;25.20;13.82;;;;;;;2.39;100.00;100682.75;4955557;29;20193;-79
2022/01/27 10:32:09;;;;;;;25.30;13.95;;;;;;;2.48;100.00;100690.66;4955558;29;20224;-78
2022/01/27 10:34:53;;;;;;;26.05;13.43;;;;;;;2.45;100.00;100686.25;4955458;29;20257;-79
2022/01/27 10:37:20;;;;;;;30.70;15.13;;;;;;;2.38;100.00;100683.66;4955732;29;20295;-79
2022/01/27 10:39:48;;;;;;;26.20;14.30;;;;;;;2.01;100.00;100681.22;4955625;29;20192;-79
2022/01/27 10:42:15;;;;;;;27.85;14.73;;;;;;;2.29;100.00;100680.16;4955343;29;20204;-79
2022/01/27 10:44:46;;;;;;;25.38;13.85;;;;;;;2.14;100.00;100682.91;4955468;29;20197;-79
2022/01/27 10:47:17;;;;;;;29.35;14.63;;;;;;;2.15;100.00;100675.81;4955342;29;20197;-79
2022/01/27 10:49:48;;;;;;;24.50;14.10;;;;;;;2.26;100.00;100677.53;4955582;29;20212;-79
2022/01/27 10:52:18;;;;;;;26.60;14.77;;;;;;;2.51;100.00;100677.34;4955456;29;20594;-79
2022/01/27 10:54:56;;;;;;;25.98;13.68;;;;;;;2.49;100.00;100674.69;4955233;29;20596;-79
2022/01/27 10:57:25;;;;;;;28.33;14.85;;;;;;;2.21;100.00;100676.66;4954970;29;20201;-79
2022/01/27 11:00:06;;;;;;;30.58;14.27;;;;;;;2.08;100.00;100670.56;4954967;28;20583;-79
2022/01/27 11:02:48;;;;;;;30.00;14.45;;;;;;;2.09;100.00;100668.78;4955017;29;20181;-79
2022/01/27 11:05:19;;;;;;;27.60;13.63;;;;;;;2.38;100.00;100668.56;4955170;29;20635;-79
2022/01/27 11:07:46;;;;;;;26.80;13.77;;;;;;;2.34;100.00;100657.97;4954981;29;20702;-79
2022/01/27 11:10:15;;;;;;;27.45;15.85;;;;;;;2.62;100.00;100654.22;4955147;29;20219;-80
2022/01/27 11:12:43;;;;;;;28.88;14.18;;;;;;;2.56;100.00;100643.63;4954794;29;20235;-80
2022/01/27 11:15:10;;;;;;;27.70;14.43;;;;;;;2.47;100.00;100644.56;4954734;29;20291;-79
2022/01/27 11:17:40;;;;;;;25.90;13.10;;;;;;;2.42;100.00;100658.78;4954951;29;20598;-78
2022/01/27 11:20:23;;;;;;;27.10;15.40;;;;;;;2.30;100.00;100650.00;4954836;29;20590;-80
2022/01/27 11:23:11;;;;;;;25.55;13.90;;;;;;;2.57;100.00;100637.41;4954662;29;20185;-79
2022/01/27 11:25:52;;;;;;;26.65;14.68;;;;;;;2.33;100.00;100649.13;4954142;29;20241;-79
2022/01/27 11:28:20;;;;;;;30.40;16.13;;;;;;;2.37;100.00;100637.56;4954788;29;20187;-79
2022/01/27 11:30:58;;;;;;;30.05;15.82;;;;;;;2.52;100.00;100625.94;4954455;29;20200;-79
2022/01/27 11:33:34;;;;;;;28.38;15.02;;;;;;;2.81;100.00;100616.81;4954645;29;20259;-78
2022/01/27 11:36:11;;;;;;;28.40;15.73;;;;;;;2.75;97.99;100604.44;4954136;29;20328;-79
2022/01/27 11:38:40;;;;;;;29.13;14.25;;;;;;;2.68;99.91;100603.59;4954020;29;20231;-80
2022/01/27 11:41:06;;;;;;;31.40;14.80;;;;;;;2.48;100.00;100602.91;4954208;29;20194;-78
2022/01/27 11:43:34;;;;;;;26.88;15.70;;;;;;;2.44;100.00;100603.84;4954624;29;20197;-78
2022/01/27 11:46:19;;;;;;;29.45;14.45;;;;;;;2.28;100.00;100598.66;4954050;29;20201;-79
2022/01/27 11:48:47;;;;;;;30.52;15.25;;;;;;;2.26;100.00;100602.22;4952892;29;20208;-79
2022/01/27 11:51:15;;;;;;;31.40;16.80;;;;;;;2.35;100.00;100594.16;4953928;29;20295;-79
2022/01/27 11:53:44;;;;;;;29.73;15.57;;;;;;;2.46;100.00;100594.94;4953896;29;20319;-78
2022/01/27 11:56:33;;;;;;;29.83;16.00;;;;;;;2.34;100.00;100587.09;4954022;29;20276;-78
2022/01/27 11:59:01;;;;;;;31.48;16.20;;;;;;;2.21;100.00;100598.72;4954171;29;20205;-79
2022/01/27 12:01:29;;;;;;;27.70;16.20;;;;;;;2.51;100.00;100600.25;4954045;29;20196;-79
2022/01/27 12:04:15;;;;;;;29.30;15.35;;;;;;;2.72;100.00;100593.84;4953993;29;20678;-79
2022/01/27 12:07:03;;;;;;;27.30;15.02;;;;;;;2.91;100.00;100589.19;4953666;29;20193;-79
2022/01/27 12:09:31;;;;;;;33.28;17.23;;;;;;;2.98;100.00;100601.50;4953992;29;20201;-78
2022/01/27 12:12:00;;;;;;;27.13;14.85;;;;;;;2.87;100.00;100603.41;4953288;28;20733;-79
2022/01/27 12:14:49;;;;;;;27.05;15.27;;;;;;;2.37;100.00;100595.03;4954251;29;20702;-78
2022/01/27 12:17:27;;;;;;;30.08;16.83;;;;;;;2.56;100.00;100595.75;4953588;29;20212;-78
2022/01/27 12:19:56;;;;;;;29.55;15.32;;;;;;;2.85;100.00;100597.22;4953584;29;20186;-79
2022/01/27 12:22:27;;;;;;;31.13;16.67;;;;;;;3.06;100.00;100588.16;4953885;29;20718;-79
2022/01/27 12:24:56;;;;;;;26.80;14.80;;;;;;;3.02;100.00;100589.94;4953464;29;20598;-78
2022/01/27 12:27:24;;;;;;;30.92;15.48;;;;;;;2.91;100.00;100584.75;4953115;29;20213;-79
2022/01/27 12:29:53;;;;;;;29.38;17.33;;;;;;;3.11;99.77;100576.53;4953384;29;20296;-79
2022/01/27 12:32:21;;;;;;;29.15;17.17;;;;;;;3.21;98.66;100581.75;4954000;29;20227;-78
2022/01/27 12:34:50;;;;;;;28.10;17.00;;;;;;;3.13;99.84;100574.72;4953666;29;20244;-79
2022/01/27 12:37:22;;;;;;;31.40;16.38;;;;;;;3.03;100.00;100573.09;4953666;29;20216;-79
2022/01/27 12:39:54;;;;;;;39.22;17.17;;;;;;;2.78;100.00;100566.28;4954163;29;20294;-78
2022/01/27 12:42:26;;;;;;;32.05;18.67;;;;;;;2.79;100.00;100568.06;4953500;29;20248;-79
2022/01/27 12:44:55;;;;;;;29.48;17.00;;;;;;;2.66;100.00;100549.53;4953274;29;20224;-79
2022/01/27 12:47:23;;;;;;;32.92;18.15;;;;;;;2.68;100.00;100539.78;4953634;29;20261;-78
2022/01/27 12:49:59;;;;;;;32.08;16.95;;;;;;;2.60;100.00;100533.69;4953916;29;20750;-78
2022/01/27 12:52:29;;;;;;;33.35;17.85;;;;;;;2.70;100.00;100524.69;4953701;29;20691;-78
2022/01/27 12:54:56;;;;;;;35.20;18.63;;;;;;;2.61;100.00;100532.78;4953886;29;20245;-79
2022/01/27 12:57:24;;;;;;;30.17;16.63;;;;;;;2.71;100.00;100529.13;4953209;29;20214;-79
2022/01/27 12:59:52;;;;;;;32.10;18.52;;;;;;;2.85;100.00;100530.72;4953268;29;20194;-78
2022/01/27 13:02:20;;;;;;;28.17;16.58;;;;;;;2.79;100.00;100514.84;4954181;29;20216;-78
2022/01/27 13:04:49;;;;;;;30.33;15.95;;;;;;;2.66;100.00;100512.31;4954048;29;20221;-79
2022/01/27 13:07:16;;;;;;;26.75;16.40;;;;;;;2.61;100.00;100500.84;4953573;29;20610;-79
2022/01/27 13:09:44;;;;;;;28.00;15.75;;;;;;;2.75;100.00;100508.69;4953504;29;20293;-78
2022/01/27 13:12:15;;;;;;;30.67;16.95;;;;;;;2.80;100.00;100497.97;4953597;29;20246;-79
2022/01/27 13:15:06;;;;;;;35.92;17.20;;;;;;;2.77;100.00;100482.94;4953279;29;20210;-79
2022/01/27 13:17:39;;;;;;;30.10;16.10;;;;;;;2.39;100.00;100483.38;4953445;29;20581;-79
2022/01/27 13:20:12;;;;;;;34.15;17.45;;;;;;;2.48;100.00;100494.78;4953612;29;20195;-79
2022/01/27 13:22:47;;;;;;;36.70;17.85;;;;;;;2.51;100.00;100499.22;4953667;29;20711;-79
2022/01/27 13:25:15;;;;;;;29.70;16.38;;;;;;;2.43;100.00;100485.13;4955413;28;20229;-79
2022/01/27 13:27:43;;;;;;;35.47;18.65;;;;;;;2.55;100.00;100482.31;4957214;29;20212;-79
2022/01/27 13:30:10;;;;;;;35.85;17.23;;;;;;;2.70;100.00;100473.28;4956799;29;20211;-78
2022/01/27 13:32:37;;;;;;;34.05;18.08;;;;;;;2.60;100.00;100472.53;4956502;29;20211;-78
2022/01/27 13:35:05;;;;;;;28.83;16.58;;;;;;;2.80;100.00;100476.69;4956340;29;20275;-79
2022/01/27 13:37:33;;;;;;;38.63;19.00;;;;;;;2.75;100.00;100475.88;4956781;29;20595;-78
2022/01/27 13:42:58;;;;;;;31.75;18.08;;;;;;;2.75;100.00;100476.75;4956197;29;20189;-78
2022/01/27 13:45:25;;;;;;;32.90;17.13;;;;;;;2.79;100.00;100478.50;4956406;29;20207;-80
2022/01/27 13:47:51;;;;;;;31.60;18.38;;;;;;;2.94;100.00;100480.09;4956424;29;20276;-80
2022/01/27 13:50:20;;;;;;;37.03;18.70;;;;;;;3.02;100.00;100486.16;4956563;29;20636;-80
2022/01/27 13:52:49;;;;;;;30.65;18.80;;;;;;;3.06;100.00;100487.03;4956521;29;20210;-80
2022/01/27 13:55:17;;;;;;;32.17;17.67;;;;;;;2.91;100.00;100494.28;4956811;29;20751;-78
2022/01/27 13:57:54;;;;;;;30.75;17.05;;;;;;;2.95;100.00;100489.81;4956213;29;20297;-79
2022/01/27 14:00:36;;;;;;;31.55;19.00;;;;;;;2.77;100.00;100482.06;4956544;29;20226;-80
2022/01/27 14:03:12;;;;;;;28.63;17.08;;;;;;;2.81;100.00;100489.13;4956466;29;20229;-80
2022/01/27 14:05:39;;;;;;;31.35;17.25;;;;;;;2.92;100.00;100492.53;4956139;29;20189;-80
2022/01/27 14:08:06;;;;;;;32.95;17.58;;;;;;;2.97;100.00;100490.69;4956081;29;20207;-79
2022/01/27 14:10:40;;;;;;;30.92;17.80;;;;;;;2.85;100.00;100497.03;4956150;29;20275;-79
2022/01/27 14:13:15;;;;;;;31.88;17.30;;;;;;;2.95;100.00;100500.47;4956760;29;20585;-80
2022/01/27 14:15:44;;;;;;;33.20;17.45;;;;;;;2.99;100.00;100501.31;4956403;29;20195;-78
2022/01/27 14:18:14;;;;;;;31.48;17.73;;;;;;;3.04;100.00;100502.13;4956047;29;20211;-79
2022/01/27 14:20:51;;;;;;;27.70;15.30;;;;;;;3.11;100.00;100503.81;4956134;29;20203;-79
2022/01/27 14:23:19;;;;;;;34.33;17.83;;;;;;;3.08;100.00;100506.53;4955840;29;20603;-80
2022/01/27 14:25:55;;;;;;;29.27;16.73;;;;;;;3.17;100.00;100508.19;4955851;29;20222;-79
2022/01/27 14:28:22;;;;;;;28.50;16.08;;;;;;;3.30;100.00;100501.75;4955673;29;20541;-79
2022/01/27 14:30:51;;;;;;;30.45;18.58;;;;;;;3.46;100.00;100506.00;4955473;29;20312;-79
2022/01/27 14:33:18;;;;;;;33.95;17.33;;;;;;;3.43;100.00;100506.00;4955814;29;20605;-79
2022/01/27 14:35:44;;;;;;;33.30;16.50;;;;;;;3.17;100.00;100509.06;4954871;28;20234;-79
2022/01/27 14:38:11;;;;;;;27.85;17.50;;;;;;;3.37;100.00;100507.88;4955460;29;20198;-79
2022/01/27 14:40:39;;;;;;;30.55;17.30;;;;;;;3.43;100.00;100515.78;4955122;29;20205;-79
2022/01/27 14:43:06;;;;;;;33.78;18.52;;;;;;;3.36;100.00;100515.00;4955473;29;20193;-80
2022/01/27 14:45:33;;;;;;;32.70;18.38;;;;;;;3.56;100.00;100509.38;4955692;29;20200;-80
2022/01/27 14:48:03;;;;;;;29.20;16.95;;;;;;;3.43;100.00;100506.00;4955603;29;20625;-79
2022/01/27 14:50:32;;;;;;;27.90;17.30;;;;;;;3.57;100.00;100507.59;4954997;29;20284;-79
2022/01/27 14:52:58;;;;;;;39.50;24.50;;;;;;;3.49;100.00;100503.28;4955170;29;20205;-81
2022/01/27 14:55:27;;;;;;;31.08;17.20;;;;;;;3.38;100.00;100499.88;4954993;29;20246;-78
2022/01/27 14:57:54;;;;;;;28.40;17.55;;;;;;;3.33;100.00;100502.63;4955144;29;20210;-79
2022/01/27 15:00:22;;;;;;;34.58;19.05;;;;;;;3.10;100.00;100499.41;4955367;29;20546;-79
2022/01/27 15:02:49;;;;;;;32.97;18.98;;;;;;;2.83;100.00;100490.88;4955444;29;20242;-79
2022/01/27 15:05:18;;;;;;;36.50;19.60;;;;;;;3.09;100.00;100497.63;4955370;29;20612;-80
2022/01/27 15:07:47;;;;;;;32.88;19.60;;;;;;;3.11;100.00;100499.34;4954876;29;20190;-79
2022/01/27 15:10:19;;;;;;;32.60;19.67;;;;;;;3.17;100.00;100506.41;4954549;29;20540;-79
2022/01/27 15:12:46;;;;;;;37.60;20.45;;;;;;;3.19;100.00;100504.59;4954713;29;20302;-79
2022/01/27 15:20:43;;;;;;;30.45;18.75;;;;;;;3.41;100.00;100523.78;4954538;29;20242;-78
2022/01/27 15:23:10;;;;;;;28.55;18.25;;;;;;;3.37;100.00;100510.53;4954440;29;20559;-80
2022/01/27 15:25:37;;;;;;;34.72;22.05;;;;;;;3.42;100.00;100504.28;4954831;29;20189;-80
2022/01/27 15:28:05;;;;;;;32.40;18.13;;;;;;;3.45;100.00;100506.00;4954035;29;20190;-80
2022/01/27 15:30:31;;;;;;;39.90;19.23;;;;;;;3.42;100.00;100506.94;4954506;29;20291;-79
2022/01/27 15:32:59;;;;;;;35.85;20.00;;;;;;;3.51;100.00;100505.91;4946454;29;20670;-80
2022/01/27 15:35:27;;;;;;;25.75;15.73;;;;;;;3.20;100.00;100489.50;4947710;29;20291;-80
2022/01/27 15:37:55;;;;;;;28.80;16.35;;;;;;;3.42;100.00;100493.63;4945605;29;20200;-78
2022/01/27 15:40:23;;;;;;;36.83;20.95;;;;;;;3.51;100.00;100493.47;4947733;29;20203;-81
2022/01/27 15:42:51;;;;;;;41.33;23.13;;;;;;;3.55;100.00;100497.00;4953244;29;20203;-81
2022/01/27 15:45:22;;;;;;;28.45;16.55;;;;;;;3.53;100.00;100491.69;4949965;29;20215;-80
2022/01/27 15:47:49;;;;;;;28.27;17.02;;;;;;;3.50;100.00;100502.34;4953513;28;20622;-80
2022/01/27 15:50:18;;;;;;;33.78;18.88;;;;;;;3.47;100.00;100504.19;4950361;29;20278;-81
2022/01/27 15:52:45;;;;;;;27.88;16.05;;;;;;;3.62;100.00;100500.41;4943166;29;20189;-81
2022/01/27 15:55:15;;;;;;;28.60;15.32;;;;;;;3.70;100.00;100506.50;4949938;29;20278;-82
2022/01/27 15:57:41;;;;;;;27.95;15.68;;;;;;;3.59;100.00;100505.78;4944612;29;20312;-80
2022/01/27 16:00:11;;;;;;;25.48;16.05;;;;;;;3.64;100.00;100498.59;4934677;29;20649;-80
2022/01/27 16:02:38;;;;;;;22.02;14.20;;;;;;;3.54;100.00;100505.88;4949992;29;20283;-81
2022/01/27 16:05:06;;;;;;;26.83;15.63;;;;;;;3.48;100.00;100495.28;4953776;29;20627;-80
2022/01/27 16:07:32;;;;;;;31.73;20.77;;;;;;;3.57;100.00;100491.63;4953617;29;20242;-81
2022/01/27 16:10:00;;;;;;;25.38;15.23;;;;;;;3.64;100.00;100501.28;4950861;29;20204;-81
2022/01/27 16:12:28;;;;;;;25.40;15.63;;;;;;;3.55;100.00;100491.66;4947720;29;20227;-81
2022/01/27 16:14:55;;;;;;;26.85;16.10;;;;;;;3.59;100.00;100501.34;4953842;29;20326;-82
2022/01/27 16:17:22;;;;;;;26.42;15.30;;;;;;;3.36;100.00;100507.00;4953252;29;20205;-80
2022/01/27 16:19:51;;;;;;;26.42;15.02;;;;;;;3.38;100.00;100514.97;4941954;29;20318;-80
2022/01/27 16:22:18;;;;;;;33.63;21.15;;;;;;;3.49;100.00;100508.59;4952397;29;20203;-81
2022/01/27 16:24:45;;;;;;;28.70;16.80;;;;;;;3.66;100.00;100513.66;4953465;29;20722;-81
2022/01/27 16:27:12;;;;;;;29.05;16.48;;;;;;;3.57;100.00;100513.78;4953211;29;20288;-82
2022/01/27 16:29:41;;;;;;;27.00;16.13;;;;;;;3.58;100.00;100528.03;4935028;29;20704;-80
2022/01/27 16:32:08;;;;;;;21.52;15.13;;;;;;;3.67;100.00;100522.56;4946769;29;20629;-80
2022/01/27 16:34:35;;;;;;;26.77;15.15;;;;;;;3.68;100.00;100529.63;4953443;28;20566;-82
2022/01/27 16:37:02;;;;;;;23.33;13.88;;;;;;;3.63;100.00;100526.16;4953661;29;20190;-80
2022/01/27 16:39:29;;;;;;;26.55;15.35;;;;;;;3.59;100.00;100527.09;4953550;29;20204;-80
2022/01/27 16:41:56;;;;;;;24.42;14.35;;;;;;;3.61;100.00;100533.28;4947666;28;20210;-82
2022/01/27 16:44:23;;;;;;;24.88;14.73;;;;;;;3.74;100.00;100534.88;4947181;29;20249;-81
2022/01/27 16:46:51;;;;;;;21.83;13.48;;;;;;;3.53;100.00;100531.63;4956865;28;20281;-80
2022/01/27 16:49:18;;;;;;;25.70;14.68;;;;;;;3.47;100.00;100537.03;4953616;29;20209;-81
2022/01/27 16:51:45;;;;;;;22.38;14.77;;;;;;;3.48;100.00;100540.56;4952579;29;20252;-82
2022/01/27 16:54:11;;;;;;;29.13;15.27;;;;;;;3.59;100.00;100537.75;4952680;29;20233;-81
2022/01/27 17:13:41;;;;;;;22.65;15.02;;;;;;;3.59;100.00;100535.97;4956464;29;20332;-82
2022/01/27 17:16:09;;;;;;;23.70;14.80;;;;;;;3.72;100.00;100540.22;4956785;29;20275;-81
2022/01/27 17:18:36;;;;;;;23.63;14.70;;;;;;;3.62;100.00;100527.94;4957084;29;20203;-81
2022/01/27 17:21:03;;;;;;;24.00;15.00;;;;;;;3.59;100.00;100540.41;4941225;29;20713;-81
2022/01/27 17:23:35;;;;;;;25.75;14.57;;;;;;;3.48;100.00;100532.56;4937617;29;20211;-81
2022/01/27 17:26:02;;;;;;;26.98;15.77;;;;;;;3.54;100.00;100532.50;4939176;29;20200;-82
2022/01/27 17:28:29;;;;;;;21.02;13.00;;;;;;;3.59;100.00;100540.41;4957059;29;20195;-82
2022/01/27 17:30:57;;;;;;;25.15;14.60;;;;;;;3.45;100.00;100540.63;4957513;29;20318;-81
2022/01/27 17:33:24;;;;;;;27.10;15.90;;;;;;;3.47;100.00;100537.03;4956938;29;20207;-79
2022/01/27 17:35:50;;;;;;;22.10;13.73;;;;;;;3.42;100.00;100543.34;4956540;29;20240;-83
2022/01/27 17:38:17;;;;;;;29.38;15.38;;;;;;;3.58;100.00;100538.66;4956699;29;20210;-81
2022/01/27 17:40:47;;;;;;;24.67;15.05;;;;;;;3.63;100.00;100528.81;4956446;29;20204;-81
2022/01/27 17:43:19;;;;;;;26.92;14.90;;;;;;;3.61;100.00;100533.28;4956243;29;20202;-82
2022/01/27 17:45:48;;;;;;;22.90;14.77;;;;;;;3.60;100.00;100528.88;4956241;29;20240;-80
2022/01/27 17:48:16;;;;;;;28.15;15.43;;;;;;;3.49;100.00;100535.22;4956701;29;20204;-82
2022/01/27 17:50:43;;;;;;;24.40;15.90;;;;;;;3.59;100.00;100537.75;4956417;29;20272;-82
2022/01/27 17:53:09;;;;;;;22.75;15.55;;;;;;;3.46;100.00;100545.94;4937813;29;20205;-81
2022/01/27 17:55:36;;;;;;;21.42;14.05;;;;;;;3.51;100.00;100540.53;4944609;29;20691;-80
2022/01/27 17:58:03;;;;;;;24.00;14.82;;;;;;;3.54;100.00;100552.00;4956121;29;20240;-82
2022/01/27 18:00:29;;;;;;;22.88;15.13;;;;;;;3.71;100.00;100550.91;4956246;29;20190;-81
2022/01/27 18:02:56;;;;;;;26.40;14.77;;;;;;;3.63;100.00;100550.13;4956413;28;20534;-81
2022/01/27 18:05:25;;;;;;;27.25;14.52;;;;;;;3.70;100.00;100552.66;4955698;29;20624;-81
2022/01/27 18:07:54;;;;;;;27.67;13.27;;;;;;;3.72;100.00;100542.00;4955443;29;20205;-81
2022/01/27 18:10:23;;;;;;;23.30;15.68;;;;;;;3.80;100.00;100549.88;4954834;28;20202;-83
2022/01/27 18:12:49;;;;;;;21.85;13.13;;;;;;;3.73;100.00;100551.75;4956206;29;20633;-82
2022/01/27 18:15:19;;;;;;;25.55;16.05;;;;;;;3.68;100.00;100546.47;4955637;29;20313;-83
2022/01/27 18:17:45;;;;;;;29.75;15.35;;;;;;;3.85;100.00;100540.91;4956153;29;20999;-82
2022/01/27 18:20:13;;;;;;;19.80;13.40;;;;;;;4.02;100.00;100535.31;4955288;29;20314;-80
2022/01/27 18:22:41;;;;;;;29.02;17.65;;;;;;;3.91;100.00;100547.91;4955772;29;20232;-82
2022/01/27 18:25:08;;;;;;;21.42;12.73;;;;;;;3.75;100.00;100541.94;4955530;29;20298;-81
2022/01/27 18:27:35;;;;;;;18.50;12.25;;;;;;;3.71;100.00;100545.59;4956151;29;20203;-81
2022/01/27 18:30:01;;;;;;;23.92;15.25;;;;;;;3.77;100.00;100540.13;4956172;29;20197;-82
2022/01/27 18:32:28;;;;;;;30.52;18.02;;;;;;;3.70;100.00;100549.13;4947289;29;20273;-82
2022/01/27 18:34:55;;;;;;;23.88;15.75;;;;;;;3.82;100.00;100543.63;4936419;29;20990;-80
2022/01/27 18:37:21;;;;;;;21.67;12.82;;;;;;;3.74;100.00;100545.53;4955470;29;21059;-81
2022/01/27 18:39:49;;;;;;;18.42;12.27;;;;;;;3.92;100.00;100544.38;4955040;28;20306;-81
2022/01/27 18:42:16;;;;;;;16.98;11.15;;;;;;;3.79;100.00;100550.78;4955503;29;20941;-82
2022/01/27 18:44:49;;;;;;;17.23;10.48;;;;;;;3.71;100.00;100550.91;4954897;29;20223;-82
2022/01/27 18:47:17;;;;;;;16.60;11.00;;;;;;;3.55;100.00;100555.56;4954974;29;20208;-82
2022/01/27 18:49:44;;;;;;;17.30;11.80;;;;;;;3.62;100.00;100551.91;4955353;29;20559;-83
2022/01/27 18:52:12;;;;;;;18.85;11.38;;;;;;;3.71;100.00;100553.56;4955326;29;20205;-81
2022/01/27 18:54:38;;;;;;;13.23;10.73;;;;;;;3.49;100.00;100559.19;4954289;29;20739;-81